Skip to main content Skip to accessibility
This website is not compatible with your web browser. You should install a newer browser. If you live in Jersey and need help upgrading call the States of Jersey web team on 440099.
gov.je

L'înformâtion et les sèrvices publyis pouor I'Île dé Jèrri

Local METARs

METAR LFRD 270130Z AUTO 29004KT 9999 BKN046 OVC180 15/14 Q1009 TEMPO 4000 SHRA BKN030TCU

METAR LFRC 270130Z AUTO 09004KT 9999 FEW046 BKN054 15/12 Q1009

 

 

 

​Times are in Greenwich Mean Time (GMT) and not British Summer Time (BST). They will be one hour different during BST.

Back to top
rating button